createdAt,value
2022-09-17T00:00:36.461Z,11.31
2022-09-17T00:03:40.410Z,11.30
2022-09-17T00:06:43.307Z,11.25
2022-09-17T00:09:45.940Z,11.21
2022-09-17T00:12:48.569Z,11.18
2022-09-17T00:15:52.605Z,11.14
2022-09-17T00:18:56.773Z,11.10
2022-09-17T00:21:59.921Z,11.16
2022-09-17T00:25:02.633Z,11.19
2022-09-17T00:28:05.250Z,11.11
2022-09-17T00:31:09.142Z,11.04
2022-09-17T00:34:13.073Z,11.08
2022-09-17T00:37:15.650Z,11.04
2022-09-17T00:40:19.149Z,11.22
2022-09-17T00:43:41.559Z,11.41
2022-09-17T00:46:45.384Z,11.42
2022-09-17T00:49:50.593Z,11.46
2022-09-17T00:52:56.281Z,11.41
2022-09-17T00:56:03.746Z,11.33
2022-09-17T00:59:07.065Z,11.14
2022-09-17T01:02:09.891Z,10.98
2022-09-17T01:05:14.398Z,10.86
2022-09-17T01:08:23.377Z,10.74
2022-09-17T01:11:40.591Z,10.65
2022-09-17T01:14:55.662Z,10.61
2022-09-17T01:18:10.558Z,10.57
2022-09-17T01:21:34.762Z,10.54
2022-09-17T01:25:01.888Z,10.58
2022-09-17T01:28:24.480Z,10.53
2022-09-17T01:31:36.216Z,10.51
2022-09-17T01:34:43.423Z,10.47
2022-09-17T01:37:57.899Z,10.46
2022-09-17T01:41:07.622Z,10.69
2022-09-17T01:44:14.090Z,10.94
2022-09-17T01:47:22.954Z,11.02
2022-09-17T01:50:28.821Z,11.03
2022-09-17T01:53:36.349Z,10.97
2022-09-17T01:56:40.751Z,10.80
2022-09-17T01:59:46.407Z,10.91
2022-09-17T02:02:54.749Z,11.08
2022-09-17T02:06:00.765Z,11.13
2022-09-17T02:09:11.649Z,11.18
2022-09-17T02:12:21.963Z,11.12
2022-09-17T02:15:27.205Z,10.88
2022-09-17T02:18:34.886Z,10.74
2022-09-17T02:21:42.216Z,10.70
2022-09-17T02:24:48.228Z,10.68
2022-09-17T02:27:54.694Z,10.62
2022-09-17T02:30:57.443Z,10.70
2022-09-17T02:34:02.975Z,10.84
2022-09-17T02:37:06.431Z,10.89
2022-09-17T02:40:10.543Z,10.98
2022-09-17T02:43:20.771Z,10.97
2022-09-17T02:46:41.824Z,11.05
2022-09-17T02:49:58.488Z,11.05
2022-09-17T02:53:11.753Z,11.08
2022-09-17T02:56:21.089Z,11.00
2022-09-17T02:59:25.995Z,10.82
2022-09-17T03:02:32.082Z,10.66
2022-09-17T03:05:37.813Z,10.58
2022-09-17T03:08:42.396Z,10.59
2022-09-17T03:11:45.190Z,10.53
2022-09-17T03:14:47.904Z,10.32
2022-09-17T03:17:53.384Z,10.29
2022-09-17T03:20:57.687Z,10.21
2022-09-17T03:24:01.066Z,10.17
2022-09-17T03:27:03.796Z,10.14
2022-09-17T03:30:07.508Z,10.03
2022-09-17T03:33:10.109Z,9.97
2022-09-17T03:36:14.032Z,10.11
2022-09-17T03:39:16.785Z,10.36
2022-09-17T03:42:19.364Z,10.41
2022-09-17T03:45:22.103Z,10.33
2022-09-17T03:48:24.791Z,10.31
2022-09-17T03:51:28.689Z,10.31
2022-09-17T03:54:31.247Z,10.11
2022-09-17T03:57:33.812Z,10.10
2022-09-17T04:00:37.147Z,10.03
2022-09-17T04:03:40.182Z,9.98
2022-09-17T04:06:44.171Z,10.05
2022-09-17T04:09:46.797Z,10.03
2022-09-17T04:12:49.328Z,10.03
2022-09-17T04:15:53.102Z,9.91
2022-09-17T04:18:55.883Z,9.83
2022-09-17T04:22:00.306Z,9.92
2022-09-17T04:25:03.497Z,9.90
2022-09-17T04:28:06.077Z,9.78
2022-09-17T04:31:09.116Z,9.68
2022-09-17T04:34:11.724Z,9.80
2022-09-17T04:37:16.925Z,9.99
2022-09-17T04:40:19.616Z,10.11
2022-09-17T04:43:22.435Z,10.13
2022-09-17T04:46:25.094Z,10.12
2022-09-17T04:49:29.775Z,10.31
2022-09-17T04:52:34.113Z,10.44
2022-09-17T04:55:36.893Z,10.51
2022-09-17T04:58:39.611Z,10.37
2022-09-17T05:01:43.255Z,10.37
2022-09-17T05:04:45.821Z,10.53
2022-09-17T05:07:50.032Z,10.67
2022-09-17T05:10:52.814Z,10.51
2022-09-17T05:13:55.711Z,10.33
2022-09-17T05:16:58.362Z,10.55
2022-09-17T05:20:01.026Z,10.53
2022-09-17T05:23:05.169Z,10.51
2022-09-17T05:26:08.178Z,10.42
2022-09-17T05:29:11.016Z,10.60
2022-09-17T05:32:13.698Z,10.41
2022-09-17T05:35:16.566Z,10.37
2022-09-17T05:38:20.606Z,10.28
2022-09-17T05:41:23.447Z,10.23
2022-09-17T05:44:26.800Z,10.26
2022-09-17T05:47:29.617Z,10.33
2022-09-17T05:50:33.150Z,10.33
2022-09-17T05:53:37.944Z,10.30
2022-09-17T05:56:40.671Z,10.39
2022-09-17T05:59:43.440Z,10.49
2022-09-17T06:02:46.284Z,10.65
2022-09-17T06:05:54.983Z,10.84
2022-09-17T06:09:00.482Z,10.67
2022-09-17T06:12:03.838Z,10.91
2022-09-17T06:15:07.709Z,11.04
2022-09-17T06:18:10.803Z,11.22
2022-09-17T06:21:13.427Z,11.21
2022-09-17T06:24:17.636Z,10.95
2022-09-17T06:27:20.356Z,10.89
2022-09-17T06:30:22.970Z,11.01
2022-09-17T06:33:26.766Z,11.51
2022-09-17T06:36:29.440Z,11.49
2022-09-17T06:39:34.375Z,11.69
2022-09-17T06:42:37.008Z,11.89
2022-09-17T06:45:39.720Z,12.12
2022-09-17T06:48:42.423Z,12.31
2022-09-17T06:51:45.214Z,11.88
2022-09-17T06:54:49.282Z,11.68
2022-09-17T06:57:51.876Z,12.11
2022-09-17T07:00:59.666Z,12.08
2022-09-17T07:04:02.631Z,11.97
2022-09-17T07:07:06.266Z,12.25
2022-09-17T07:10:10.488Z,12.40
2022-09-17T07:13:12.984Z,12.29
2022-09-17T07:16:15.726Z,11.91
2022-09-17T07:19:18.490Z,11.70
2022-09-17T07:22:21.247Z,11.00
2022-09-17T07:25:26.639Z,11.00
2022-09-17T07:28:30.216Z,10.80
2022-09-17T07:31:32.971Z,10.57
2022-09-17T07:34:35.726Z,10.40
2022-09-17T07:37:38.323Z,10.15
2022-09-17T07:40:42.563Z,10.13
2022-09-17T07:43:45.859Z,10.40
2022-09-17T07:46:48.530Z,10.31
2022-09-17T07:49:51.185Z,10.13
2022-09-17T07:52:53.940Z,10.06
2022-09-17T07:55:59.895Z,10.09
2022-09-17T07:59:03.377Z,10.28
2022-09-17T08:02:06.329Z,10.38
2022-09-17T08:05:10.193Z,10.63
2022-09-17T08:08:13.639Z,11.06
2022-09-17T08:11:38.116Z,11.22
2022-09-17T08:14:42.918Z,10.92
2022-09-17T08:17:46.023Z,10.96
2022-09-17T08:20:48.779Z,11.23
2022-09-17T08:23:51.488Z,11.51
2022-09-17T08:26:55.743Z,11.73
2022-09-17T08:29:58.374Z,11.79
2022-09-17T08:33:00.923Z,11.87
2022-09-17T08:36:04.427Z,12.31
2022-09-17T08:39:07.227Z,12.41
2022-09-17T08:42:18.614Z,12.84
2022-09-17T08:45:22.280Z,12.86
2022-09-17T08:48:24.786Z,13.54
2022-09-17T08:51:33.410Z,13.75
2022-09-17T08:54:40.646Z,13.62
2022-09-17T08:57:49.056Z,12.85
2022-09-17T09:00:55.954Z,13.49
2022-09-17T09:04:21.895Z,14.09
2022-09-17T09:07:27.147Z,14.05
2022-09-17T09:10:33.643Z,13.64
2022-09-17T09:13:42.214Z,14.13
2022-09-17T09:16:46.197Z,13.73
2022-09-17T09:19:49.957Z,13.71
2022-09-17T09:22:53.842Z,13.88
2022-09-17T09:26:03.682Z,14.18
2022-09-17T09:29:14.279Z,14.55
2022-09-17T09:32:24.426Z,14.67
2022-09-17T09:35:29.031Z,14.37
2022-09-17T09:38:34.583Z,14.18
2022-09-17T09:41:43.608Z,14.83
2022-09-17T09:44:47.937Z,14.83
2022-09-17T09:47:57.140Z,15.23
2022-09-17T09:51:11.650Z,15.06
2022-09-17T09:54:25.318Z,14.51
2022-09-17T09:57:32.820Z,14.64
2022-09-17T10:00:39.315Z,13.81
2022-09-17T10:03:46.098Z,13.84
2022-09-17T10:06:50.492Z,13.47
2022-09-17T10:10:09.173Z,14.25
2022-09-17T10:13:14.937Z,14.95
2022-09-17T10:16:20.505Z,15.35
2022-09-17T10:19:25.649Z,15.25
2022-09-17T10:22:30.775Z,15.99
2022-09-17T10:25:35.317Z,15.61
2022-09-17T10:28:46.778Z,15.77
2022-09-17T10:31:52.182Z,15.58
2022-09-17T10:35:07.117Z,15.86
2022-09-17T10:38:31.642Z,15.48
2022-09-17T10:41:34.249Z,15.38
2022-09-17T10:44:37.990Z,14.76
2022-09-17T10:47:44.934Z,14.49
2022-09-17T10:50:49.875Z,15.32
2022-09-17T10:54:07.092Z,15.79
2022-09-17T10:57:11.490Z,16.03
2022-09-17T11:00:17.536Z,16.05
2022-09-17T11:03:42.964Z,17.58
2022-09-17T11:07:19.113Z,16.99
2022-09-17T11:10:26.696Z,15.73
2022-09-17T11:13:37.163Z,16.02
2022-09-17T11:16:44.092Z,16.39
2022-09-17T11:19:57.071Z,18.54
2022-09-17T11:23:09.273Z,17.46
2022-09-17T11:26:19.837Z,16.60
2022-09-17T11:29:41.716Z,16.42
2022-09-17T11:33:12.172Z,16.71
2022-09-17T11:36:19.378Z,16.46
2022-09-17T11:39:32.199Z,16.85
2022-09-17T11:42:39.964Z,17.08
2022-09-17T11:45:50.158Z,17.10
2022-09-17T11:48:59.418Z,16.73
2022-09-17T11:52:06.892Z,17.19
2022-09-17T11:55:19.691Z,18.00
2022-09-17T11:58:29.009Z,18.03
2022-09-17T12:01:37.107Z,18.11
2022-09-17T12:04:45.618Z,18.15
2022-09-17T12:07:56.002Z,18.04
2022-09-17T12:11:02.974Z,17.45
2022-09-17T12:14:09.347Z,16.32
2022-09-17T12:17:18.106Z,15.75
2022-09-17T12:20:28.663Z,14.08
2022-09-17T12:23:38.847Z,13.46
2022-09-17T12:26:54.573Z,13.07
2022-09-17T12:30:07.518Z,12.77
2022-09-17T12:33:26.181Z,12.53
2022-09-17T12:36:37.590Z,13.18
2022-09-17T12:39:57.246Z,14.45
2022-09-17T12:43:14.889Z,14.74
2022-09-17T12:46:29.715Z,14.36
2022-09-17T12:49:59.989Z,14.36
2022-09-17T12:53:16.888Z,13.86
2022-09-17T12:56:31.557Z,13.72
2022-09-17T12:59:35.925Z,13.27
2022-09-17T13:02:41.582Z,13.33
2022-09-17T13:06:05.356Z,13.13
2022-09-17T13:09:43.076Z,12.69
2022-09-17T13:12:50.154Z,12.45
2022-09-17T13:15:59.480Z,11.95
2022-09-17T13:19:16.117Z,12.47
2022-09-17T13:22:21.154Z,12.75
2022-09-17T13:25:24.312Z,13.21
2022-09-17T13:28:38.007Z,14.38
2022-09-17T13:31:51.023Z,14.19
2022-09-17T13:34:53.924Z,14.62
2022-09-17T13:37:58.350Z,15.86
2022-09-17T13:41:18.600Z,16.67
2022-09-17T13:44:23.943Z,18.56
2022-09-17T13:47:28.497Z,19.19
2022-09-17T13:50:34.060Z,23.99
2022-09-17T13:53:38.868Z,24.44
2022-09-17T13:56:45.975Z,21.41
2022-09-17T13:59:57.905Z,21.98
2022-09-17T14:03:44.579Z,25.19
2022-09-17T14:06:54.927Z,22.76
2022-09-17T14:09:58.532Z,21.33
2022-09-17T14:13:22.593Z,20.57
2022-09-17T14:16:46.927Z,21.30
2022-09-17T14:19:51.710Z,24.17
2022-09-17T14:22:58.696Z,24.67
2022-09-17T14:26:04.495Z,19.96
2022-09-17T14:29:13.336Z,18.88
2022-09-17T14:32:21.088Z,21.46
2022-09-17T14:35:35.687Z,27.61
2022-09-17T14:38:44.837Z,27.11
2022-09-17T14:41:47.706Z,26.54
2022-09-17T14:44:56.249Z,20.34
2022-09-17T14:48:25.645Z,24.63
2022-09-17T14:51:30.250Z,26.59
2022-09-17T14:54:36.617Z,21.62
2022-09-17T14:57:39.572Z,19.01
2022-09-17T15:00:52.164Z,22.09
2022-09-17T15:04:21.252Z,21.53
2022-09-17T15:07:24.684Z,19.01
2022-09-17T15:10:27.227Z,19.37
2022-09-17T15:13:31.940Z,18.49
2022-09-17T15:16:36.758Z,17.08
2022-09-17T15:19:45.026Z,15.90
2022-09-17T15:22:53.063Z,15.67
2022-09-17T15:25:57.395Z,15.61
2022-09-17T15:29:00.691Z,14.99
2022-09-17T15:32:05.320Z,14.82
2022-09-17T15:35:19.142Z,14.92
2022-09-17T15:38:24.114Z,14.97
2022-09-17T15:41:32.398Z,16.40
2022-09-17T15:44:36.085Z,18.20
2022-09-17T15:47:51.831Z,17.98
2022-09-17T15:50:57.678Z,16.23
2022-09-17T15:54:01.863Z,16.06
2022-09-17T15:57:05.022Z,17.23
2022-09-17T16:00:09.997Z,22.39
2022-09-17T16:04:01.894Z,23.90
2022-09-17T16:07:30.376Z,17.49
2022-09-17T16:10:33.089Z,15.72
2022-09-17T16:13:35.983Z,15.07
2022-09-17T16:16:39.485Z,14.78
2022-09-17T16:19:42.062Z,14.83
2022-09-17T16:22:47.957Z,16.96
2022-09-17T16:25:51.379Z,19.42
2022-09-17T16:28:55.442Z,20.89
2022-09-17T16:31:58.087Z,22.31
2022-09-17T16:35:00.717Z,18.76
2022-09-17T16:38:05.008Z,18.31
2022-09-17T16:41:09.902Z,16.67
2022-09-17T16:44:12.672Z,16.01
2022-09-17T16:47:15.424Z,15.79
2022-09-17T16:50:19.098Z,15.38
2022-09-17T16:53:23.192Z,15.16
2022-09-17T16:56:25.872Z,14.80
2022-09-17T16:59:28.694Z,14.50
2022-09-17T17:02:31.482Z,14.25
2022-09-17T17:05:37.665Z,14.17
2022-09-17T17:08:41.803Z,14.22
2022-09-17T17:11:44.437Z,14.05
2022-09-17T17:14:55.735Z,12.97
2022-09-17T17:17:58.566Z,11.88
2022-09-17T17:21:06.211Z,11.49
2022-09-17T17:24:10.101Z,11.38
2022-09-17T17:27:14.081Z,11.33
2022-09-17T17:30:17.517Z,11.27
2022-09-17T17:33:20.368Z,11.28
2022-09-17T17:36:23.245Z,11.23
2022-09-17T17:39:27.461Z,11.17
2022-09-17T17:42:35.730Z,11.22
2022-09-17T17:45:39.495Z,11.39
2022-09-17T17:48:43.738Z,11.45
2022-09-17T17:51:46.520Z,11.57
2022-09-17T17:54:50.515Z,11.53
2022-09-17T17:58:00.878Z,11.36
2022-09-17T18:01:11.154Z,11.11
2022-09-17T18:04:13.715Z,11.04
2022-09-17T18:07:16.412Z,10.90
2022-09-17T18:10:20.893Z,10.87
2022-09-17T18:13:23.939Z,10.82
2022-09-17T18:16:26.598Z,10.85
2022-09-17T18:19:29.659Z,11.05
2022-09-17T18:22:32.240Z,11.19
2022-09-17T18:25:36.309Z,11.28
2022-09-17T18:28:38.984Z,10.99
2022-09-17T18:31:41.783Z,10.76
2022-09-17T18:34:44.404Z,10.70
2022-09-17T18:37:47.146Z,10.72
2022-09-17T18:40:51.374Z,10.79
2022-09-17T18:43:54.247Z,10.84
2022-09-17T18:46:56.911Z,10.76
2022-09-17T18:49:59.748Z,10.86
2022-09-17T18:53:02.984Z,10.70
2022-09-17T18:56:12.137Z,10.81
2022-09-17T18:59:14.674Z,10.83
2022-09-17T19:02:17.406Z,10.92
2022-09-17T19:05:20.112Z,10.60
2022-09-17T19:08:23.617Z,10.57
2022-09-17T19:11:27.856Z,10.61
2022-09-17T19:14:30.595Z,10.27
2022-09-17T19:17:33.210Z,9.71
2022-09-17T19:20:38.555Z,9.35
2022-09-17T19:23:41.689Z,8.91
2022-09-17T19:26:50.654Z,8.59
2022-09-17T19:29:55.172Z,8.62
2022-09-17T19:32:58.244Z,8.74
2022-09-17T19:36:01.732Z,8.93
2022-09-17T19:39:04.706Z,9.17
2022-09-17T19:42:08.931Z,9.36
2022-09-17T19:45:12.102Z,9.43
2022-09-17T19:48:14.864Z,9.48
2022-09-17T19:51:18.148Z,9.48
2022-09-17T19:54:20.946Z,9.45
2022-09-17T19:57:25.344Z,9.42
2022-09-17T20:00:27.945Z,9.56
2022-09-17T20:03:30.925Z,9.60
2022-09-17T20:06:34.781Z,9.55
2022-09-17T20:09:37.446Z,9.59
2022-09-17T20:12:41.443Z,9.80
2022-09-17T20:15:44.080Z,9.95
2022-09-17T20:18:46.848Z,9.94
2022-09-17T20:21:49.803Z,9.67
2022-09-17T20:24:52.591Z,9.66
2022-09-17T20:27:56.612Z,9.59
2022-09-17T20:31:03.244Z,9.42
2022-09-17T20:34:06.361Z,9.38
2022-09-17T20:37:13.417Z,9.36
2022-09-17T20:40:16.874Z,9.46
2022-09-17T20:43:21.315Z,9.48
2022-09-17T20:46:28.945Z,9.49
2022-09-17T20:49:32.393Z,9.42
2022-09-17T20:52:35.051Z,9.55
2022-09-17T20:55:37.631Z,9.54
2022-09-17T20:58:45.756Z,9.61
2022-09-17T21:01:49.776Z,9.60
2022-09-17T21:04:53.678Z,9.73
2022-09-17T21:07:56.135Z,9.85
2022-09-17T21:10:58.770Z,9.87
2022-09-17T21:14:03.295Z,9.78
2022-09-17T21:17:06.687Z,9.93
2022-09-17T21:20:10.220Z,10.04
2022-09-17T21:23:12.794Z,10.16
2022-09-17T21:26:16.624Z,10.15
2022-09-17T21:29:21.250Z,10.07
2022-09-17T21:32:24.044Z,10.07
2022-09-17T21:35:30.566Z,10.07
2022-09-17T21:38:33.753Z,10.16
2022-09-17T21:41:40.074Z,10.26
2022-09-17T21:44:46.357Z,10.28
2022-09-17T21:47:49.677Z,10.46
2022-09-17T21:50:52.542Z,10.38
2022-09-17T21:53:57.103Z,10.48
2022-09-17T21:57:00.184Z,10.41
2022-09-17T22:00:07.609Z,10.28
2022-09-17T22:03:11.129Z,10.15
2022-09-17T22:06:16.015Z,10.03
2022-09-17T22:09:20.483Z,9.98
2022-09-17T22:12:23.024Z,9.85
2022-09-17T22:15:27.076Z,9.77
2022-09-17T22:18:29.927Z,9.71
2022-09-17T22:21:34.379Z,9.71
2022-09-17T22:24:38.553Z,9.89
2022-09-17T22:27:41.303Z,9.93
2022-09-17T22:30:45.193Z,9.95
2022-09-17T22:33:49.025Z,9.92
2022-09-17T22:36:51.762Z,9.98
2022-09-17T22:39:54.327Z,10.13
2022-09-17T22:42:56.893Z,10.19
2022-09-17T22:46:01.053Z,10.17
2022-09-17T22:49:04.041Z,10.25
2022-09-17T22:52:06.704Z,10.26
2022-09-17T22:55:09.892Z,10.32
2022-09-17T22:58:12.530Z,10.31
2022-09-17T23:01:18.075Z,10.44
2022-09-17T23:04:20.696Z,10.42
2022-09-17T23:07:23.374Z,10.40
2022-09-17T23:10:27.071Z,10.43
2022-09-17T23:13:29.683Z,10.48
2022-09-17T23:16:38.527Z,10.51
2022-09-17T23:19:41.213Z,10.55
2022-09-17T23:22:44.474Z,10.56
2022-09-17T23:25:47.083Z,10.53
2022-09-17T23:28:50.353Z,10.48
2022-09-17T23:31:54.546Z,10.54
2022-09-17T23:34:57.101Z,10.58
2022-09-17T23:37:59.717Z,10.60
2022-09-17T23:41:13.773Z,10.55
2022-09-17T23:44:16.598Z,10.60
2022-09-17T23:47:20.530Z,10.59
2022-09-17T23:50:23.062Z,10.59
2022-09-17T23:53:25.919Z,10.63
2022-09-17T23:56:29.520Z,10.59
2022-09-17T23:59:32.017Z,10.69
